createdAt,value
2022-07-26T00:00:51.995Z,2.88
2022-07-26T00:03:19.214Z,2.97
2022-07-26T00:05:46.702Z,2.90
2022-07-26T00:08:13.848Z,3.10
2022-07-26T00:10:49.185Z,2.88
2022-07-26T00:13:19.832Z,3.25
2022-07-26T00:15:49.184Z,3.00
2022-07-26T00:18:17.844Z,2.90
2022-07-26T00:20:46.037Z,2.90
2022-07-26T00:23:14.575Z,3.65
2022-07-26T00:25:42.299Z,3.20
2022-07-26T00:28:09.299Z,3.00
2022-07-26T00:30:36.748Z,2.85
2022-07-26T00:33:03.955Z,3.15
2022-07-26T00:35:31.589Z,3.08
2022-07-26T00:37:59.068Z,3.00
2022-07-26T00:40:26.361Z,2.75
2022-07-26T00:42:53.715Z,3.15
2022-07-26T00:45:20.801Z,2.60
2022-07-26T00:47:47.977Z,3.00
2022-07-26T00:50:19.953Z,2.92
2022-07-26T00:52:50.015Z,3.05
2022-07-26T00:55:18.417Z,2.95
2022-07-26T00:57:46.791Z,2.90
2022-07-26T01:00:19.298Z,2.95
2022-07-26T01:02:46.578Z,2.60
2022-07-26T01:05:14.935Z,2.75
2022-07-26T01:07:43.676Z,3.08
2022-07-26T01:10:12.881Z,3.03
2022-07-26T01:13:00.170Z,2.70
2022-07-26T01:15:27.465Z,2.88
2022-07-26T01:17:54.631Z,3.20
2022-07-26T01:20:22.082Z,3.10
2022-07-26T01:22:49.217Z,2.92
2022-07-26T01:25:16.443Z,3.10
2022-07-26T01:27:44.025Z,3.00
2022-07-26T01:30:12.785Z,3.28
2022-07-26T01:32:40.213Z,2.88
2022-07-26T01:35:08.389Z,3.25
2022-07-26T01:37:35.666Z,2.70
2022-07-26T01:40:04.141Z,3.30
2022-07-26T01:42:31.930Z,3.42
2022-07-26T01:44:58.967Z,3.30
2022-07-26T01:47:26.002Z,3.28
2022-07-26T01:49:53.164Z,3.25
2022-07-26T01:52:20.230Z,3.30
2022-07-26T01:54:47.233Z,2.70
2022-07-26T01:57:14.423Z,3.20
2022-07-26T01:59:41.411Z,2.72
2022-07-26T02:02:08.625Z,3.00
2022-07-26T02:04:58.819Z,2.90
2022-07-26T02:07:38.058Z,2.95
2022-07-26T02:10:08.599Z,3.00
2022-07-26T02:12:39.755Z,3.08
2022-07-26T02:15:09.362Z,2.95
2022-07-26T02:17:40.094Z,3.38
2022-07-26T02:20:08.965Z,2.80
2022-07-26T02:22:36.112Z,2.38
2022-07-26T02:25:05.439Z,2.83
2022-07-26T02:27:34.369Z,2.75
2022-07-26T02:30:02.261Z,2.83
2022-07-26T02:32:29.330Z,2.90
2022-07-26T02:34:56.331Z,2.70
2022-07-26T02:37:23.308Z,3.22
2022-07-26T02:39:50.339Z,3.10
2022-07-26T02:42:36.327Z,3.00
2022-07-26T02:45:03.995Z,2.38
2022-07-26T02:47:52.986Z,3.58
2022-07-26T02:50:22.977Z,3.08
2022-07-26T02:52:51.816Z,2.20
2022-07-26T02:55:24.182Z,2.50
2022-07-26T02:57:52.242Z,3.13
2022-07-26T03:00:25.000Z,2.90
2022-07-26T03:02:53.123Z,3.20
2022-07-26T03:05:21.947Z,2.80
2022-07-26T03:07:49.426Z,2.92
2022-07-26T03:10:16.997Z,2.90
2022-07-26T03:12:44.264Z,2.75
2022-07-26T03:15:11.970Z,3.40
2022-07-26T03:17:39.439Z,2.92
2022-07-26T03:20:07.275Z,3.15
2022-07-26T03:22:34.454Z,3.03
2022-07-26T03:25:01.613Z,2.55
2022-07-26T03:27:28.694Z,2.70
2022-07-26T03:29:55.743Z,3.38
2022-07-26T03:32:22.906Z,2.50
2022-07-26T03:34:50.042Z,3.13
2022-07-26T03:37:17.561Z,3.13
2022-07-26T03:39:45.087Z,2.92
2022-07-26T03:42:12.190Z,3.15
2022-07-26T03:44:39.221Z,3.00
2022-07-26T03:47:06.402Z,3.40
2022-07-26T03:49:33.494Z,2.85
2022-07-26T03:52:00.703Z,2.50
2022-07-26T03:54:27.906Z,3.13
2022-07-26T03:56:55.034Z,3.10
2022-07-26T03:59:24.107Z,3.25
2022-07-26T04:01:51.933Z,3.22
2022-07-26T04:04:19.400Z,2.50
2022-07-26T04:06:52.252Z,3.53
2022-07-26T04:09:20.029Z,2.75
2022-07-26T04:11:48.607Z,3.65
2022-07-26T04:14:16.504Z,2.72
2022-07-26T04:16:44.052Z,3.20
2022-07-26T04:19:11.210Z,2.83
2022-07-26T04:21:38.315Z,2.95
2022-07-26T04:24:05.904Z,3.58
2022-07-26T04:26:33.275Z,3.00
2022-07-26T04:29:00.374Z,3.17
2022-07-26T04:31:27.625Z,3.35
2022-07-26T04:34:01.907Z,2.85
2022-07-26T04:36:28.924Z,3.80
2022-07-26T04:38:55.904Z,2.80
2022-07-26T04:41:23.161Z,3.55
2022-07-26T04:43:50.206Z,3.20
2022-07-26T04:46:18.375Z,3.22
2022-07-26T04:48:45.507Z,3.35
2022-07-26T04:51:12.542Z,3.60
2022-07-26T04:53:39.525Z,3.25
2022-07-26T04:56:06.982Z,3.25
2022-07-26T04:58:34.082Z,3.13
2022-07-26T05:01:10.309Z,3.15
2022-07-26T05:03:39.012Z,3.13
2022-07-26T05:06:06.469Z,3.10
2022-07-26T05:08:33.544Z,3.33
2022-07-26T05:11:00.675Z,3.42
2022-07-26T05:13:30.603Z,3.53
2022-07-26T05:15:59.743Z,3.13
2022-07-26T05:18:29.278Z,3.42
2022-07-26T05:20:58.659Z,3.20
2022-07-26T05:23:25.884Z,3.65
2022-07-26T05:25:52.938Z,3.58
2022-07-26T05:28:20.018Z,3.15
2022-07-26T05:30:47.452Z,3.42
2022-07-26T05:33:16.518Z,3.70
2022-07-26T05:35:43.961Z,4.40
2022-07-26T05:38:11.114Z,3.45
2022-07-26T05:40:40.608Z,3.42
2022-07-26T05:43:07.676Z,3.42
2022-07-26T05:45:34.891Z,4.22
2022-07-26T05:48:02.193Z,2.88
2022-07-26T05:50:33.051Z,2.92
2022-07-26T05:53:00.151Z,3.60
2022-07-26T05:55:27.209Z,3.03
2022-07-26T05:57:54.211Z,3.35
2022-07-26T06:00:21.469Z,3.38
2022-07-26T06:02:48.492Z,3.30
2022-07-26T06:05:15.955Z,3.25
2022-07-26T06:07:43.044Z,2.75
2022-07-26T06:10:10.450Z,2.60
2022-07-26T06:12:37.573Z,3.17
2022-07-26T06:15:15.059Z,3.03
2022-07-26T06:17:43.502Z,2.83
2022-07-26T06:20:11.156Z,2.10
2022-07-26T06:22:38.214Z,2.35
2022-07-26T06:25:06.154Z,2.75
2022-07-26T06:27:33.286Z,2.42
2022-07-26T06:30:00.543Z,2.85
2022-07-26T06:32:27.628Z,2.50
2022-07-26T06:34:54.806Z,2.42
2022-07-26T06:37:21.908Z,2.85
2022-07-26T06:39:48.918Z,2.35
2022-07-26T06:42:15.986Z,6.97
2022-07-26T06:44:43.100Z,3.70
2022-07-26T06:47:10.210Z,2.40
2022-07-26T06:49:37.332Z,1.75
2022-07-26T06:52:04.902Z,7.03
2022-07-26T06:54:32.020Z,1.77
2022-07-26T06:56:59.007Z,1.80
2022-07-26T06:59:26.222Z,1.55
2022-07-26T07:01:59.417Z,1.63
2022-07-26T07:04:29.985Z,2.33
2022-07-26T07:07:03.318Z,1.83
2022-07-26T07:09:33.948Z,2.10
2022-07-26T07:12:09.376Z,2.20
2022-07-26T07:14:38.151Z,1.52
2022-07-26T07:17:11.152Z,2.58
2022-07-26T07:19:40.232Z,1.83
2022-07-26T07:22:11.642Z,5.20
2022-07-26T07:24:39.558Z,1.83
2022-07-26T07:27:07.350Z,1.70
2022-07-26T07:29:34.525Z,1.90
2022-07-26T07:32:03.437Z,1.63
2022-07-26T07:34:30.693Z,1.60
2022-07-26T07:36:57.919Z,1.83
2022-07-26T07:39:27.306Z,1.70
2022-07-26T07:42:02.069Z,1.67
2022-07-26T07:44:29.153Z,1.88
2022-07-26T07:46:56.738Z,1.10
2022-07-26T07:49:24.087Z,1.48
2022-07-26T07:51:51.137Z,1.67
2022-07-26T07:54:18.456Z,1.90
2022-07-26T07:56:45.469Z,1.75
2022-07-26T07:59:13.006Z,1.55
2022-07-26T08:01:41.092Z,1.40
2022-07-26T08:04:09.881Z,1.30
2022-07-26T08:06:37.121Z,1.70
2022-07-26T08:09:05.383Z,1.40
2022-07-26T08:11:34.400Z,0.73
2022-07-26T08:14:02.193Z,0.73
2022-07-26T08:16:29.728Z,1.10
2022-07-26T08:18:58.462Z,1.35
2022-07-26T08:21:29.399Z,1.02
2022-07-26T08:23:58.020Z,1.27
2022-07-26T08:26:25.651Z,1.15
2022-07-26T08:29:09.821Z,0.90
2022-07-26T08:31:37.436Z,1.33
2022-07-26T08:34:04.564Z,1.00
2022-07-26T08:36:32.994Z,0.80
2022-07-26T08:39:02.079Z,0.85
2022-07-26T08:41:30.638Z,1.00
2022-07-26T08:44:09.706Z,0.75
2022-07-26T08:46:38.335Z,1.27
2022-07-26T08:49:08.213Z,1.00
2022-07-26T08:51:43.914Z,1.00
2022-07-26T08:54:15.293Z,1.10
2022-07-26T08:56:51.800Z,1.23
2022-07-26T08:59:22.288Z,1.05
2022-07-26T09:02:00.899Z,1.15
2022-07-26T09:04:43.828Z,1.38
2022-07-26T09:07:19.415Z,1.20
2022-07-26T09:10:00.683Z,1.35
2022-07-26T09:12:30.996Z,1.10
2022-07-26T09:15:00.990Z,0.93
2022-07-26T09:17:46.826Z,1.38
2022-07-26T09:20:29.495Z,1.15
2022-07-26T09:23:10.268Z,0.70
2022-07-26T09:25:44.469Z,1.30
2022-07-26T09:28:29.669Z,1.15
2022-07-26T09:31:02.004Z,0.90
2022-07-26T09:33:49.070Z,1.10
2022-07-26T09:36:18.406Z,0.90
2022-07-26T09:38:50.572Z,1.05
2022-07-26T09:41:27.936Z,1.00
2022-07-26T09:44:03.073Z,0.80
2022-07-26T09:46:32.474Z,0.50
2022-07-26T09:49:21.064Z,1.00
2022-07-26T09:51:51.729Z,0.60
2022-07-26T09:54:33.937Z,1.05
2022-07-26T09:57:02.094Z,1.02
2022-07-26T09:59:30.055Z,0.60
2022-07-26T10:02:00.491Z,0.60
2022-07-26T10:04:28.042Z,0.75
2022-07-26T10:06:58.255Z,1.00
2022-07-26T10:09:32.979Z,0.90
2022-07-26T10:12:09.060Z,0.88
2022-07-26T10:14:51.443Z,1.02
2022-07-26T10:17:35.174Z,0.93
2022-07-26T10:20:09.331Z,0.98
2022-07-26T10:22:47.418Z,1.02
2022-07-26T10:25:17.541Z,0.80
2022-07-26T10:27:51.236Z,1.20
2022-07-26T10:30:18.350Z,1.40
2022-07-26T10:32:52.648Z,1.20
2022-07-26T10:35:39.416Z,0.95
2022-07-26T10:38:14.286Z,1.13
2022-07-26T10:41:01.894Z,0.90
2022-07-26T10:43:45.768Z,0.77
2022-07-26T10:46:19.095Z,0.85
2022-07-26T10:49:01.620Z,0.80
2022-07-26T10:51:36.205Z,1.05
2022-07-26T10:54:15.002Z,0.77
2022-07-26T10:56:42.331Z,0.90
2022-07-26T10:59:09.511Z,0.90
2022-07-26T11:01:43.104Z,0.77
2022-07-26T11:04:23.563Z,1.20
2022-07-26T11:06:50.651Z,1.17
2022-07-26T11:09:21.292Z,1.08
2022-07-26T11:11:49.042Z,0.90
2022-07-26T11:14:18.389Z,1.00
2022-07-26T11:16:48.896Z,1.00
2022-07-26T11:19:23.341Z,0.77
2022-07-26T11:22:00.566Z,1.38
2022-07-26T11:24:29.338Z,1.88
2022-07-26T11:27:02.790Z,1.02
2022-07-26T11:29:39.122Z,1.15
2022-07-26T11:32:25.289Z,0.85
2022-07-26T11:35:05.015Z,1.20
2022-07-26T11:37:39.549Z,1.40
2022-07-26T11:40:07.348Z,1.13
2022-07-26T11:42:34.546Z,0.80
2022-07-26T11:45:01.620Z,1.20
2022-07-26T11:47:28.904Z,1.20
2022-07-26T11:50:17.006Z,1.33
2022-07-26T11:52:45.990Z,1.08
2022-07-26T11:55:13.524Z,1.30
2022-07-26T11:57:40.807Z,1.30
2022-07-26T12:00:08.971Z,1.40
2022-07-26T12:02:36.143Z,1.33
2022-07-26T12:05:33.424Z,1.27
2022-07-26T12:08:04.925Z,1.60
2022-07-26T12:10:32.607Z,1.40
2022-07-26T12:13:15.876Z,1.67
2022-07-26T12:15:50.305Z,1.73
2022-07-26T12:18:35.266Z,1.40
2022-07-26T12:21:09.645Z,1.63
2022-07-26T12:23:49.603Z,1.25
2022-07-26T12:26:27.706Z,1.33
2022-07-26T12:28:57.238Z,1.58
2022-07-26T12:31:34.116Z,1.45
2022-07-26T12:34:01.870Z,1.48
2022-07-26T12:36:30.318Z,1.90
2022-07-26T12:39:00.076Z,1.90
2022-07-26T12:41:40.579Z,1.92
2022-07-26T12:44:12.377Z,1.42
2022-07-26T12:46:40.331Z,1.90
2022-07-26T12:49:07.466Z,2.10
2022-07-26T12:51:34.830Z,2.83
2022-07-26T12:54:03.420Z,1.67
2022-07-26T12:56:30.447Z,1.92
2022-07-26T12:59:01.528Z,1.50
2022-07-26T13:01:31.349Z,1.80
2022-07-26T13:03:58.665Z,1.77
2022-07-26T13:06:25.737Z,1.70
2022-07-26T13:08:53.773Z,1.52
2022-07-26T13:11:21.087Z,1.70
2022-07-26T13:13:49.426Z,1.80
2022-07-26T13:16:16.498Z,1.38
2022-07-26T13:18:43.727Z,1.65
2022-07-26T13:21:11.929Z,1.42
2022-07-26T13:23:39.231Z,1.45
2022-07-26T13:26:09.258Z,1.60
2022-07-26T13:28:37.038Z,1.35
2022-07-26T13:31:04.278Z,2.03
2022-07-26T13:33:33.193Z,1.50
2022-07-26T13:36:00.633Z,1.63
2022-07-26T13:38:28.414Z,1.50
2022-07-26T13:40:56.498Z,2.10
2022-07-26T13:43:24.269Z,1.70
2022-07-26T13:45:51.561Z,1.20
2022-07-26T13:48:18.730Z,1.65
2022-07-26T13:50:45.846Z,2.05
2022-07-26T13:53:13.250Z,1.70
2022-07-26T13:55:40.291Z,2.20
2022-07-26T13:58:10.422Z,1.83
2022-07-26T14:00:40.376Z,1.45
2022-07-26T14:03:08.236Z,1.60
2022-07-26T14:05:35.618Z,1.60
2022-07-26T14:08:03.070Z,1.77
2022-07-26T14:10:30.970Z,1.35
2022-07-26T14:12:58.812Z,1.60
2022-07-26T14:15:26.035Z,1.50
2022-07-26T14:17:53.330Z,1.85
2022-07-26T14:20:21.855Z,1.83
2022-07-26T14:22:53.556Z,1.75
2022-07-26T14:25:25.839Z,1.85
2022-07-26T14:27:54.858Z,1.70
2022-07-26T14:30:22.701Z,1.60
2022-07-26T14:32:50.418Z,2.03
2022-07-26T14:35:17.917Z,1.95
2022-07-26T14:37:46.020Z,1.73
2022-07-26T14:40:17.700Z,1.25
2022-07-26T14:42:45.996Z,1.90
2022-07-26T14:45:14.579Z,1.50
2022-07-26T14:47:42.385Z,1.58
2022-07-26T14:50:15.672Z,1.90
2022-07-26T14:52:48.271Z,1.98
2022-07-26T14:55:21.695Z,1.60
2022-07-26T14:57:52.118Z,1.48
2022-07-26T15:00:19.266Z,1.70
2022-07-26T15:02:48.580Z,1.58
2022-07-26T15:05:17.151Z,1.65
2022-07-26T15:07:45.158Z,2.25
2022-07-26T15:10:14.527Z,1.70
2022-07-26T15:12:42.885Z,2.10
2022-07-26T15:15:11.153Z,1.63
2022-07-26T15:17:38.377Z,2.20
2022-07-26T15:20:06.575Z,1.83
2022-07-26T15:22:33.708Z,2.15
2022-07-26T15:25:00.726Z,2.38
2022-07-26T15:27:27.945Z,2.63
2022-07-26T15:29:59.505Z,1.67
2022-07-26T15:32:30.397Z,1.90
2022-07-26T15:34:57.517Z,2.00
2022-07-26T15:37:24.852Z,2.10
2022-07-26T15:39:52.228Z,1.80
2022-07-26T15:42:19.631Z,2.05
2022-07-26T15:44:50.041Z,1.85
2022-07-26T15:47:52.418Z,1.65
2022-07-26T15:50:09.897Z,1.80
2022-07-26T15:52:42.021Z,2.22
2022-07-26T15:55:11.622Z,1.70
2022-07-26T15:57:40.207Z,1.42
2022-07-26T16:00:11.579Z,2.20
2022-07-26T16:02:40.516Z,1.90
2022-07-26T16:05:09.048Z,1.55
2022-07-26T16:07:36.437Z,2.70
2022-07-26T16:10:04.715Z,2.08
2022-07-26T16:12:31.714Z,2.15
2022-07-26T16:14:58.726Z,2.30
2022-07-26T16:17:25.775Z,2.05
2022-07-26T16:19:53.434Z,2.17
2022-07-26T16:22:20.742Z,2.15
2022-07-26T16:24:47.992Z,1.90
2022-07-26T16:27:15.067Z,2.05
2022-07-26T16:29:42.100Z,2.28
2022-07-26T16:32:11.738Z,1.75
2022-07-26T16:34:39.063Z,2.22
2022-07-26T16:37:06.205Z,1.92
2022-07-26T16:39:33.316Z,2.28
2022-07-26T16:42:06.793Z,1.85
2022-07-26T16:44:36.276Z,1.92
2022-07-26T16:47:04.561Z,2.40
2022-07-26T16:49:31.856Z,1.50
2022-07-26T16:51:59.154Z,2.08
2022-07-26T16:54:26.612Z,2.20
2022-07-26T16:56:53.723Z,1.98
2022-07-26T16:59:20.988Z,2.03
2022-07-26T17:01:48.217Z,1.73
2022-07-26T17:04:16.578Z,2.08
2022-07-26T17:07:01.821Z,1.80
2022-07-26T17:09:31.712Z,2.05
2022-07-26T17:12:02.899Z,1.98
2022-07-26T17:14:33.171Z,2.63
2022-07-26T17:17:00.328Z,2.22
2022-07-26T17:19:27.785Z,2.40
2022-07-26T17:21:54.859Z,1.60
2022-07-26T17:24:21.893Z,2.22
2022-07-26T17:26:48.949Z,1.83
2022-07-26T17:29:16.072Z,2.03
2022-07-26T17:31:43.184Z,1.98
2022-07-26T17:34:10.738Z,1.60
2022-07-26T17:36:38.350Z,1.35
2022-07-26T17:39:05.623Z,1.98
2022-07-26T17:41:33.611Z,1.30
2022-07-26T17:44:02.982Z,1.58
2022-07-26T17:46:33.937Z,1.88
2022-07-26T17:49:01.396Z,1.40
2022-07-26T17:51:28.537Z,2.13
2022-07-26T17:53:55.597Z,2.30
2022-07-26T17:56:22.605Z,2.00
2022-07-26T17:58:49.633Z,2.03
2022-07-26T18:01:16.984Z,1.60
2022-07-26T18:03:44.302Z,1.80
2022-07-26T18:06:11.680Z,1.15
2022-07-26T18:08:38.863Z,1.70
2022-07-26T18:11:07.980Z,1.30
2022-07-26T18:13:35.556Z,1.60
2022-07-26T18:16:05.926Z,1.80
2022-07-26T18:18:33.591Z,1.58
2022-07-26T18:21:00.659Z,1.48
2022-07-26T18:23:27.689Z,1.85
2022-07-26T18:25:54.823Z,1.45
2022-07-26T18:28:21.817Z,1.55
2022-07-26T18:30:48.890Z,1.48
2022-07-26T18:33:16.513Z,1.90
2022-07-26T18:35:43.891Z,1.48
2022-07-26T18:38:11.042Z,1.70
2022-07-26T18:40:38.158Z,1.85
2022-07-26T18:43:05.250Z,1.95
2022-07-26T18:45:32.395Z,1.75
2022-07-26T18:47:59.822Z,1.40
2022-07-26T18:50:27.111Z,2.10
2022-07-26T18:52:59.314Z,1.63
2022-07-26T18:55:26.487Z,1.88
2022-07-26T18:57:53.644Z,1.98
2022-07-26T19:00:23.016Z,1.60
2022-07-26T19:02:52.078Z,2.00
2022-07-26T19:05:20.620Z,2.30
2022-07-26T19:07:47.694Z,2.17
2022-07-26T19:10:15.818Z,1.58
2022-07-26T19:12:45.280Z,1.48
2022-07-26T19:15:16.152Z,1.65
2022-07-26T19:17:44.823Z,1.30
2022-07-26T19:20:13.635Z,1.75
2022-07-26T19:22:41.648Z,1.58
2022-07-26T19:25:10.483Z,1.90
2022-07-26T19:27:38.252Z,1.65
2022-07-26T19:30:08.374Z,1.77
2022-07-26T19:32:38.921Z,1.80
2022-07-26T19:35:07.881Z,1.67
2022-07-26T19:37:35.495Z,1.60
2022-07-26T19:40:04.180Z,1.60
2022-07-26T19:42:32.452Z,1.60
2022-07-26T19:45:00.432Z,1.77
2022-07-26T19:47:29.695Z,1.42
2022-07-26T19:49:57.494Z,1.25
2022-07-26T19:52:25.027Z,1.25
2022-07-26T19:54:52.342Z,1.60
2022-07-26T19:57:19.540Z,1.77
2022-07-26T19:59:47.421Z,2.03
2022-07-26T20:02:14.932Z,1.70
2022-07-26T20:04:45.923Z,1.45
2022-07-26T20:07:19.518Z,1.57
2022-07-26T20:09:49.978Z,1.27
2022-07-26T20:12:19.287Z,1.35
2022-07-26T20:14:47.357Z,0.97
2022-07-26T20:17:14.839Z,1.60
2022-07-26T20:19:42.464Z,1.37
2022-07-26T20:22:09.787Z,1.02
2022-07-26T20:24:38.212Z,2.17
2022-07-26T20:27:07.947Z,1.45
2022-07-26T20:29:35.584Z,1.90
2022-07-26T20:32:03.222Z,1.67
2022-07-26T20:34:30.401Z,1.73
2022-07-26T20:36:57.534Z,1.60
2022-07-26T20:39:26.195Z,1.70
2022-07-26T20:41:53.851Z,2.03
2022-07-26T20:44:27.943Z,1.77
2022-07-26T20:46:55.750Z,1.60
2022-07-26T20:49:22.894Z,1.83
2022-07-26T20:51:50.030Z,1.77
2022-07-26T20:54:17.285Z,1.50
2022-07-26T20:56:44.344Z,1.60
2022-07-26T20:59:11.716Z,1.50
2022-07-26T21:01:39.029Z,1.50
2022-07-26T21:04:14.495Z,1.40
2022-07-26T21:06:41.982Z,1.40
2022-07-26T21:09:09.795Z,1.37
2022-07-26T21:11:38.863Z,1.80
2022-07-26T21:14:06.265Z,1.30
2022-07-26T21:16:33.356Z,1.70
2022-07-26T21:19:02.012Z,1.30
2022-07-26T21:21:29.022Z,1.60
2022-07-26T21:23:56.013Z,1.90
2022-07-26T21:26:23.102Z,1.80
2022-07-26T21:28:50.080Z,1.60
2022-07-26T21:31:17.241Z,1.80
2022-07-26T21:33:44.968Z,1.60
2022-07-26T21:36:12.063Z,1.60
2022-07-26T21:38:39.151Z,1.47
2022-07-26T21:41:06.165Z,1.57
2022-07-26T21:43:33.225Z,1.30
2022-07-26T21:46:00.804Z,1.23
2022-07-26T21:48:27.947Z,1.50
2022-07-26T21:50:54.946Z,1.43
2022-07-26T21:53:21.999Z,1.50
2022-07-26T21:55:48.961Z,1.40
2022-07-26T21:58:16.026Z,1.90
2022-07-26T22:00:43.673Z,1.40
2022-07-26T22:03:11.784Z,1.63
2022-07-26T22:05:38.943Z,1.60
2022-07-26T22:08:12.278Z,1.40
2022-07-26T22:10:44.747Z,1.17
2022-07-26T22:13:13.624Z,1.57
2022-07-26T22:15:41.095Z,1.20
2022-07-26T22:18:09.790Z,1.47
2022-07-26T22:20:37.288Z,1.80
2022-07-26T22:23:08.012Z,1.07
2022-07-26T22:25:38.175Z,1.40
2022-07-26T22:28:07.937Z,1.27
2022-07-26T22:30:36.133Z,1.80
2022-07-26T22:33:06.420Z,1.80
2022-07-26T22:35:36.485Z,1.20
2022-07-26T22:38:11.450Z,1.37
2022-07-26T22:40:40.307Z,1.43
2022-07-26T22:43:08.787Z,1.47
2022-07-26T22:45:37.317Z,1.80
2022-07-26T22:48:06.072Z,1.67
2022-07-26T22:50:33.437Z,1.40
2022-07-26T22:53:01.058Z,1.40
2022-07-26T22:55:29.047Z,1.70
2022-07-26T22:57:56.354Z,1.53
2022-07-26T23:00:24.497Z,1.27
2022-07-26T23:02:52.034Z,1.80
2022-07-26T23:05:20.206Z,1.80
2022-07-26T23:07:48.594Z,1.83
2022-07-26T23:10:17.405Z,1.50
2022-07-26T23:12:44.754Z,1.90
2022-07-26T23:15:12.885Z,1.60
2022-07-26T23:17:40.893Z,1.40
2022-07-26T23:20:10.082Z,1.83
2022-07-26T23:22:38.375Z,1.97
2022-07-26T23:25:06.745Z,1.50
2022-07-26T23:27:36.587Z,1.60
2022-07-26T23:30:04.269Z,1.87
2022-07-26T23:32:33.820Z,1.60
2022-07-26T23:35:02.368Z,1.73
2022-07-26T23:37:29.905Z,1.50
2022-07-26T23:39:56.889Z,1.50
2022-07-26T23:42:23.870Z,1.43
2022-07-26T23:44:50.884Z,1.97
2022-07-26T23:47:17.936Z,1.50
2022-07-26T23:49:44.980Z,1.70
2022-07-26T23:52:11.954Z,1.47
2022-07-26T23:54:39.047Z,1.57
2022-07-26T23:57:06.158Z,1.37
2022-07-26T23:59:33.170Z,1.30
